Time;durP1;ratioP1;P1;durP2;ratioP2;P2;SDS_P1;SDS_P2;PMS_P1;PMS_P2;Temp;Humidity;BMP_temperature;BMP_pressure;BME280_temperature;BME280_humidity;BME280_pressure;Samples;Min_cycle;Max_cycle;Signal;HPM_P1;HPM_P2
2021/08/01 00:02:59;;;;;;;2.84;1.20;;;;;;;15.08;85.31;98695.81;2022286;77;28371;-79
2021/08/01 00:06:02;;;;;;;2.64;1.26;;;;;;;15.08;85.00;98693.19;2024234;80;20508;-79
2021/08/01 00:09:05;;;;;;;5.19;1.04;;;;;;;15.06;84.68;98694.97;2022447;80;20175;-77
2021/08/01 00:12:08;;;;;;;5.24;1.17;;;;;;;15.04;84.56;98688.09;2022766;80;20203;-77
2021/08/01 00:15:12;;;;;;;4.75;1.33;;;;;;;15.00;84.59;98702.19;2021403;80;20662;-77
2021/08/01 00:18:14;;;;;;;3.01;1.25;;;;;;;14.89;84.71;98697.28;2028146;77;23481;-78
2021/08/01 00:21:17;;;;;;;2.72;1.25;;;;;;;14.85;85.17;98692.22;2029665;79;20194;-78
2021/08/01 00:24:20;;;;;;;4.84;1.33;;;;;;;14.84;85.02;98688.75;2029121;79;20739;-79
2021/08/01 00:27:22;;;;;;;3.13;1.30;;;;;;;14.84;84.98;98683.53;2029781;79;20897;-78
2021/08/01 00:30:25;;;;;;;3.03;1.13;;;;;;;14.88;84.71;98695.59;2021778;77;245678;-79
2021/08/01 00:33:28;;;;;;;4.74;1.40;;;;;;;14.87;84.75;98693.03;2024401;80;20236;-78
2021/08/01 00:36:30;;;;;;;4.51;1.49;;;;;;;14.89;84.55;98692.06;2022465;80;20213;-78
2021/08/01 00:39:33;;;;;;;3.83;1.40;;;;;;;14.87;84.69;98688.66;2025121;80;20946;-78
2021/08/01 00:42:36;;;;;;;2.83;1.19;;;;;;;14.78;85.19;98695.03;2024429;80;20175;-78
2021/08/01 00:45:39;;;;;;;9.70;1.66;;;;;;;14.73;85.66;98696.97;2026105;77;41637;-78
2021/08/01 00:48:42;;;;;;;6.50;1.30;;;;;;;14.70;86.00;98699.66;2030816;79;20287;-79
2021/08/01 00:51:44;;;;;;;4.26;1.15;;;;;;;14.71;86.25;98692.66;2029597;79;20204;-79
2021/08/01 00:54:47;;;;;;;3.92;1.70;;;;;;;14.66;86.25;98684.97;2030448;79;20251;-79
2021/08/01 00:57:50;;;;;;;2.54;1.25;;;;;;;14.61;86.45;98684.28;2031637;79;20654;-79
2021/08/01 01:04:19;;;;;;;4.13;1.71;;;;;;;14.63;86.35;98679.84;2026535;80;20358;-79
2021/08/01 01:07:40;;;;;;;5.35;1.35;;;;;;;14.58;86.35;98684.38;2025991;80;20503;-80
2021/08/01 01:10:46;;;;;;;4.24;1.38;;;;;;;14.55;86.52;98684.50;2025771;80;20179;-79
2021/08/01 01:13:54;;;;;;;2.49;1.08;;;;;;;14.51;86.56;98696.78;2023153;80;20224;-78
2021/08/01 01:17:00;;;;;;;2.47;1.13;;;;;;;14.48;86.58;98698.63;2026576;77;45261;-79
2021/08/01 01:20:16;;;;;;;3.94;1.30;;;;;;;14.45;86.57;98701.34;2032200;79;20186;-80
2021/08/01 01:23:45;;;;;;;5.26;1.60;;;;;;;14.44;86.61;98702.25;2032916;79;20199;-79
2021/08/01 01:27:00;;;;;;;3.42;1.23;;;;;;;14.44;86.55;98697.03;2035020;79;20327;-79
2021/08/01 01:30:04;;;;;;;2.46;1.21;;;;;;;14.40;86.44;98705.81;2031223;79;20162;-80
2021/08/01 01:33:09;;;;;;;8.30;1.41;;;;;;;14.37;86.63;98706.78;2027441;77;70530;-79
2021/08/01 01:36:20;;;;;;;4.99;1.31;;;;;;;14.36;86.66;98706.81;2025043;80;20191;-79
2021/08/01 01:39:24;;;;;;;1.69;1.38;;;;;;;14.30;86.78;98710.47;2026157;80;20243;-80
2021/08/01 01:42:28;;;;;;;3.26;1.35;;;;;;;14.29;86.78;98707.91;2028521;80;20263;-80
2021/08/01 01:45:30;;;;;;;4.80;1.40;;;;;;;14.24;86.92;98712.41;2027413;77;32663;-79
2021/08/01 01:48:33;;;;;;;4.00;1.44;;;;;;;14.20;87.12;98722.09;2031424;79;21325;-79
2021/08/01 01:51:37;;;;;;;6.57;1.88;;;;;;;14.17;87.61;98717.81;2032553;79;20258;-80
2021/08/01 01:54:42;;;;;;;6.57;1.81;;;;;;;14.19;87.83;98710.81;2033082;79;20186;-80
2021/08/01 01:57:46;;;;;;;4.03;2.20;;;;;;;14.26;87.76;98703.63;2031884;79;20215;-80
2021/08/01 02:00:48;;;;;;;3.31;1.90;;;;;;;14.31;87.63;98704.34;2031113;77;55945;-79
2021/08/01 02:03:51;;;;;;;6.44;1.89;;;;;;;14.30;87.52;98704.38;2027552;80;20187;-79
2021/08/01 02:06:54;;;;;;;3.49;1.31;;;;;;;14.26;87.47;98708.84;2026252;80;20244;-79
2021/08/01 02:10:03;;;;;;;2.72;1.30;;;;;;;14.21;87.67;98705.53;2026536;80;20256;-81
2021/08/01 02:13:08;;;;;;;2.53;1.20;;;;;;;14.15;87.94;98693.50;2026233;80;20183;-79
2021/08/01 02:16:11;;;;;;;4.30;1.64;;;;;;;14.13;88.02;98697.06;2025534;77;126727;-80
2021/08/01 02:19:15;;;;;;;5.04;1.50;;;;;;;14.06;88.19;98699.00;2028052;80;20188;-79
2021/08/01 02:22:19;;;;;;;2.39;1.34;;;;;;;14.04;88.36;98694.75;2027426;80;20215;-80
2021/08/01 02:25:24;;;;;;;4.19;1.50;;;;;;;14.01;88.44;98690.47;2026872;80;20205;-80
2021/08/01 02:28:30;;;;;;;3.81;1.81;;;;;;;14.05;88.44;98696.44;2023806;80;20223;-80
2021/08/01 02:31:35;;;;;;;6.04;1.60;;;;;;;14.08;88.50;98697.19;2027564;77;244983;-79
2021/08/01 02:34:38;;;;;;;4.03;2.55;;;;;;;14.10;88.50;98699.75;2037144;79;20204;-80
2021/08/01 02:37:45;;;;;;;2.83;1.34;;;;;;;14.11;88.38;98694.50;2033253;79;20835;-80
2021/08/01 02:40:50;;;;;;;3.01;1.41;;;;;;;14.15;88.12;98688.28;2038233;79;20262;-80
2021/08/01 02:43:53;;;;;;;4.85;1.64;;;;;;;14.09;87.99;98693.69;2035133;80;20182;-80
2021/08/01 02:46:59;;;;;;;5.24;1.40;;;;;;;13.99;88.09;98692.25;2030665;77;266354;-80
2021/08/01 02:51:01;;;;;;;2.99;1.76;;;;;;;13.95;88.39;98698.44;2031718;80;20183;-81
2021/08/01 02:54:27;;;;;;;3.67;1.23;;;;;;;13.99;88.56;98696.59;2033040;80;20339;-79
2021/08/01 02:57:32;;;;;;;4.86;1.27;;;;;;;14.00;88.72;98693.94;2026366;80;20187;-80
2021/08/01 03:00:36;;;;;;;3.46;1.24;;;;;;;13.99;88.83;98688.78;2028612;80;20197;-80
2021/08/01 03:03:42;;;;;;;4.51;1.30;;;;;;;14.01;88.86;98689.63;2032455;80;20415;-80
2021/08/01 03:06:45;;;;;;;4.59;1.73;;;;;;;14.04;88.83;98689.50;2028141;80;20195;-79
2021/08/01 03:09:54;;;;;;;3.80;1.33;;;;;;;14.08;88.86;98683.28;2025947;80;20210;-80
2021/08/01 03:13:02;;;;;;;3.03;1.34;;;;;;;14.09;88.85;98682.41;2031545;80;20176;-80
2021/08/01 03:16:10;;;;;;;4.59;1.57;;;;;;;14.08;88.86;98691.13;2020308;80;987274;-80
2021/08/01 03:19:14;;;;;;;1.45;1.23;;;;;;;14.05;88.99;98686.84;2030219;80;20187;-80
2021/08/01 03:22:24;;;;;;;5.96;1.49;;;;;;;14.05;89.24;98686.84;2029001;80;20240;-80
2021/08/01 03:25:27;;;;;;;4.90;1.59;;;;;;;14.05;89.34;98684.25;2032786;80;20179;-80
2021/08/01 03:28:36;;;;;;;6.13;1.83;;;;;;;14.06;89.45;98688.56;2033249;80;20199;-82
2021/08/01 03:31:40;;;;;;;4.04;1.39;;;;;;;14.08;89.55;98697.19;2033963;77;184599;-80
2021/08/01 03:35:01;;;;;;;10.21;1.63;;;;;;;14.09;89.48;98691.09;2037488;79;20363;-80
2021/08/01 03:38:17;;;;;;;4.63;1.40;;;;;;;14.08;89.73;98699.81;2034026;79;20211;-80
2021/08/01 03:41:20;;;;;;;5.32;1.61;;;;;;;14.06;89.88;98699.00;2033418;79;20238;-80
2021/08/01 03:44:23;;;;;;;5.81;1.46;;;;;;;14.06;90.11;98693.78;2033647;79;20178;-79
2021/08/01 03:47:25;;;;;;;6.95;2.05;;;;;;;14.04;90.33;98700.81;2028271;77;68736;-79
2021/08/01 03:50:29;;;;;;;5.74;2.96;;;;;;;14.08;90.36;98693.75;2030407;80;20193;-80
2021/08/01 03:53:34;;;;;;;4.89;2.96;;;;;;;14.13;90.39;98691.84;2028933;80;20179;-80
2021/08/01 03:56:46;;;;;;;3.67;1.95;;;;;;;14.17;90.35;98693.44;2031943;80;20257;-80
2021/08/01 03:59:54;;;;;;;7.89;2.28;;;;;;;14.18;90.31;98692.53;2028165;80;20311;-80
2021/08/01 04:03:11;;;;;;;6.14;2.21;;;;;;;14.20;90.00;98690.78;2035018;77;275318;-80
2021/08/01 04:06:42;;;;;;;4.26;1.80;;;;;;;14.20;89.89;98691.63;2033624;79;20276;-81
2021/08/01 04:10:46;;;;;;;3.65;1.73;;;;;;;14.21;89.97;98689.88;2034513;79;20175;-81
2021/08/01 04:15:01;;;;;;;2.74;1.60;;;;;;;14.27;89.96;98687.06;2037458;79;20202;-81
2021/08/01 04:18:51;;;;;;;2.38;1.55;;;;;;;14.27;89.87;98692.28;2035007;79;20243;-79
2021/08/01 04:21:53;;;;;;;4.88;1.74;;;;;;;14.35;89.65;98687.66;2032381;79;20271;-79
2021/08/01 04:24:56;;;;;;;4.13;1.73;;;;;;;14.32;89.58;98686.91;2032327;79;20171;-79
2021/08/01 04:27:59;;;;;;;9.95;1.67;;;;;;;14.27;89.69;98691.44;2029110;79;20194;-78
2021/08/01 04:31:01;;;;;;;3.24;1.59;;;;;;;14.22;89.89;98688.97;2027959;77;31469;-78
2021/08/01 04:34:04;;;;;;;1.81;1.56;;;;;;;14.20;90.24;98690.78;2029227;79;20314;-79
2021/08/01 04:37:07;;;;;;;5.39;1.60;;;;;;;14.21;90.36;98703.78;2028188;79;20175;-78
2021/08/01 04:40:10;;;;;;;3.59;1.41;;;;;;;14.23;90.52;98700.25;2029572;79;20223;-79
2021/08/01 04:43:12;;;;;;;3.61;1.73;;;;;;;14.26;90.50;98700.16;2029763;79;20242;-79
2021/08/01 04:46:15;;;;;;;3.14;1.34;;;;;;;14.32;90.47;98694.75;2027346;77;26616;-79
2021/08/01 04:49:18;;;;;;;2.28;1.38;;;;;;;14.40;90.16;98696.22;2024963;80;20179;-78
2021/08/01 04:52:20;;;;;;;2.39;1.66;;;;;;;14.48;89.71;98702.09;2027311;80;20183;-79
2021/08/01 04:55:23;;;;;;;5.31;1.81;;;;;;;14.57;89.21;98700.13;2025043;80;20203;-80
2021/08/01 04:58:26;;;;;;;5.21;1.83;;;;;;;14.64;89.06;98704.22;2026517;80;20176;-80
2021/08/01 05:01:29;;;;;;;4.30;2.16;;;;;;;14.65;89.16;98704.19;2026496;77;234599;-80
2021/08/01 05:04:32;;;;;;;4.39;1.74;;;;;;;14.63;89.21;98705.13;2034480;79;20613;-80
2021/08/01 05:07:35;;;;;;;4.43;1.69;;;;;;;14.62;89.28;98706.88;2033654;79;20198;-80
2021/08/01 05:10:38;;;;;;;4.07;1.76;;;;;;;14.66;89.42;98707.63;2032950;79;20188;-80
2021/08/01 05:13:41;;;;;;;5.15;2.05;;;;;;;14.77;89.31;98708.16;2033808;79;20186;-80
2021/08/01 05:16:44;;;;;;;2.28;1.61;;;;;;;14.86;89.21;98704.38;2030638;77;42349;-80
2021/08/01 05:19:47;;;;;;;2.58;1.92;;;;;;;14.89;88.91;98701.66;2027091;80;20427;-80
2021/08/01 05:22:49;;;;;;;4.72;1.79;;;;;;;14.88;88.48;98708.66;2027877;80;20194;-80
2021/08/01 05:25:52;;;;;;;3.75;2.19;;;;;;;14.88;88.46;98711.25;2030588;80;20684;-80
2021/08/01 05:28:57;;;;;;;4.21;2.24;;;;;;;14.88;88.96;98713.03;2032972;80;20186;-80
2021/08/01 05:31:59;;;;;;;3.38;1.64;;;;;;;14.89;89.28;98719.97;2025079;80;20301;-77
2021/08/01 05:35:02;;;;;;;3.34;1.83;;;;;;;14.93;89.34;98717.22;2022405;80;20282;-77
2021/08/01 05:38:06;;;;;;;4.39;2.00;;;;;;;15.01;89.37;98717.81;2022309;80;20179;-76
2021/08/01 05:41:14;;;;;;;4.21;2.40;;;;;;;15.08;89.07;98721.94;2020784;80;20675;-75
2021/08/01 05:44:17;;;;;;;4.24;1.96;;;;;;;15.10;89.05;98724.50;2021019;80;20209;-74
2021/08/01 05:47:19;;;;;;;5.47;2.39;;;;;;;15.14;88.64;98717.41;2021206;77;20551;-75
2021/08/01 05:50:22;;;;;;;6.50;2.30;;;;;;;15.20;88.90;98727.66;2021095;80;20195;-75
2021/08/01 05:53:25;;;;;;;3.19;2.14;;;;;;;15.26;88.95;98722.19;2022739;80;20193;-75
2021/08/01 05:56:28;;;;;;;7.47;2.38;;;;;;;15.30;88.97;98721.22;2022404;80;20183;-75
2021/08/01 05:59:32;;;;;;;4.06;2.53;;;;;;;15.30;89.19;98729.91;2023032;80;20900;-75
2021/08/01 06:02:35;;;;;;;4.85;2.29;;;;;;;15.35;89.24;98737.59;2026118;77;26440;-75
2021/08/01 06:05:38;;;;;;;3.20;2.26;;;;;;;15.40;89.29;98736.53;2023886;80;20237;-74
2021/08/01 06:08:44;;;;;;;3.67;2.40;;;;;;;15.47;89.23;98733.72;2027511;80;20190;-75
2021/08/01 06:11:46;;;;;;;4.15;1.91;;;;;;;15.55;89.19;98743.00;2027612;79;20187;-75
2021/08/01 06:14:49;;;;;;;7.09;2.78;;;;;;;15.69;89.13;98740.78;2026955;80;20735;-74
2021/08/01 06:17:52;;;;;;;6.80;2.21;;;;;;;15.79;88.77;98743.06;2021876;77;20270;-75
2021/08/01 06:21:15;;;;;;;4.68;1.88;;;;;;;15.88;87.96;98740.97;2020700;80;20191;-74
2021/08/01 06:24:17;;;;;;;2.56;1.49;;;;;;;15.94;87.20;98743.38;2021355;80;20190;-75
2021/08/01 06:27:20;;;;;;;4.45;1.77;;;;;;;16.06;86.50;98751.69;2020927;80;20219;-74
2021/08/01 06:30:22;;;;;;;2.90;1.60;;;;;;;16.13;85.66;98756.63;2022079;77;23778;-74
2021/08/01 06:33:25;;;;;;;3.19;1.88;;;;;;;16.19;84.32;98755.56;2027723;80;20240;-74
2021/08/01 06:36:27;;;;;;;1.85;1.36;;;;;;;16.27;83.63;98761.38;2027640;80;20718;-74
2021/08/01 06:39:30;;;;;;;4.54;1.74;;;;;;;16.36;82.98;98755.78;2027875;80;20208;-74
2021/08/01 06:42:32;;;;;;;2.78;1.66;;;;;;;16.44;82.60;98769.44;2027224;79;20166;-75
2021/08/01 06:45:36;;;;;;;2.15;1.41;;;;;;;16.47;82.69;98768.47;2026346;77;21372;-75
2021/08/01 06:48:38;;;;;;;2.97;1.64;;;;;;;16.53;82.40;98768.25;2023366;80;20252;-74
2021/08/01 06:51:42;;;;;;;4.19;1.85;;;;;;;16.57;81.91;98768.06;2026493;80;20187;-74
2021/08/01 06:54:45;;;;;;;3.55;1.55;;;;;;;16.93;80.86;98762.31;2024967;80;20175;-74
2021/08/01 06:57:47;;;;;;;3.92;1.74;;;;;;;17.66;78.72;98774.16;2022838;80;20187;-74
2021/08/01 07:00:52;;;;;;;4.29;1.38;;;;;;;17.89;76.72;98774.03;2026832;77;23367;-74
2021/08/01 07:03:55;;;;;;;2.61;1.08;;;;;;;18.15;75.89;98774.66;2028334;79;20204;-74
2021/08/01 07:06:57;;;;;;;3.14;1.20;;;;;;;18.66;73.30;98774.06;2028604;79;20698;-73
2021/08/01 07:10:00;;;;;;;2.26;0.99;;;;;;;19.14;71.09;98773.47;2025771;79;20246;-74
2021/08/01 07:13:06;;;;;;;5.35;0.90;;;;;;;19.69;69.31;98783.06;2022613;79;20182;-73
2021/08/01 07:16:09;;;;;;;3.78;1.10;;;;;;;19.71;67.86;98784.69;2025669;77;24271;-75
2021/08/01 07:19:12;;;;;;;2.81;1.00;;;;;;;19.85;67.49;98784.81;2023398;80;20771;-74
2021/08/01 07:22:14;;;;;;;3.81;0.98;;;;;;;20.18;66.00;98784.84;2023316;80;20175;-74
2021/08/01 07:25:18;;;;;;;2.85;1.11;;;;;;;20.43;64.59;98786.19;2023285;80;20206;-73
2021/08/01 07:28:20;;;;;;;1.88;0.82;;;;;;;20.35;64.99;98785.72;2021868;80;20191;-73
2021/08/01 07:31:23;;;;;;;2.70;1.06;;;;;;;20.07;66.43;98794.25;2024201;77;23310;-74
2021/08/01 07:34:26;;;;;;;2.75;1.09;;;;;;;20.10;66.35;98783.53;2027203;79;20288;-73
2021/08/01 07:37:29;;;;;;;2.04;0.96;;;;;;;20.32;65.97;98783.25;2026969;79;20721;-74
2021/08/01 07:40:32;;;;;;;3.70;1.00;;;;;;;20.17;64.47;98791.06;2027421;79;20194;-74
2021/08/01 07:43:35;;;;;;;1.10;0.70;;;;;;;19.94;65.96;98788.78;2027670;79;20855;-73
2021/08/01 07:46:37;;;;;;;2.19;0.89;;;;;;;19.70;66.00;98792.66;2024143;77;91863;-73
2021/08/01 07:49:41;;;;;;;1.98;0.63;;;;;;;19.71;66.72;98791.72;2022588;80;20229;-73
2021/08/01 07:52:44;;;;;;;2.71;0.69;;;;;;;19.86;65.57;98783.03;2022567;80;20212;-74
2021/08/01 07:55:48;;;;;;;4.05;0.80;;;;;;;19.96;63.25;98783.44;2022189;80;20209;-73
2021/08/01 07:58:51;;;;;;;3.66;0.76;;;;;;;20.03;61.65;98784.81;2022326;80;20211;-74
2021/08/01 08:01:53;;;;;;;1.77;0.63;;;;;;;20.33;62.47;98788.47;2027700;78;24627;-79
2021/08/01 08:04:56;;;;;;;2.15;0.74;;;;;;;20.40;60.87;98786.31;2035444;79;20268;-83
2021/08/01 08:08:03;;;;;;;2.35;0.60;;;;;;;20.43;60.58;98780.91;2038272;79;20204;-81
2021/08/01 08:11:06;;;;;;;1.91;0.60;;;;;;;20.73;59.42;98779.25;2042983;79;20247;-82
2021/08/01 08:14:08;;;;;;;3.61;1.04;;;;;;;21.17;58.43;98780.28;2037564;79;20198;-80
2021/08/01 08:17:15;;;;;;;1.91;0.68;;;;;;;21.70;57.55;98780.69;2022795;79;975573;-80
2021/08/01 08:20:18;;;;;;;2.50;0.60;;;;;;;22.08;54.28;98776.69;2033700;80;20195;-84
2021/08/01 08:23:23;;;;;;;3.13;0.52;;;;;;;22.22;54.13;98774.91;2035135;80;20175;-83
2021/08/01 08:26:28;;;;;;;3.34;0.52;;;;;;;22.69;54.08;98768.44;2038879;80;20163;-83
2021/08/01 08:29:32;;;;;;;2.33;0.55;;;;;;;23.25;52.84;98771.03;2035667;80;20204;-86
2021/08/01 08:36:30;;;;;;;2.88;0.50;;;;;;;23.45;49.56;98776.72;2026560;80;20180;-83
2021/08/01 08:39:33;;;;;;;2.00;0.68;;;;;;;23.65;49.74;98775.41;2025219;80;20168;-79
2021/08/01 08:42:37;;;;;;;3.01;0.60;;;;;;;23.50;49.24;98769.28;2024210;80;20196;-83
2021/08/01 08:45:53;;;;;;;1.59;0.60;;;;;;;23.75;48.61;98775.63;2028904;77;126450;-81
2021/08/01 08:48:57;;;;;;;1.98;0.60;;;;;;;23.85;50.51;98779.34;2024955;80;20229;-80
2021/08/01 08:52:01;;;;;;;3.38;0.75;;;;;;;23.70;47.54;98775.09;2029098;80;20260;-80
2021/08/01 08:55:06;;;;;;;3.49;0.60;;;;;;;23.72;48.03;98773.19;2024754;80;20277;-82
2021/08/01 08:58:08;;;;;;;2.42;0.63;;;;;;;23.94;47.53;98783.19;2024439;80;20534;-81
2021/08/01 09:01:11;;;;;;;2.54;0.60;;;;;;;23.78;47.85;98778.94;2022372;78;20288;-77
2021/08/01 09:04:14;;;;;;;2.56;0.60;;;;;;;23.59;48.74;98785.56;2022010;80;20175;-76
2021/08/01 09:07:17;;;;;;;1.31;0.50;;;;;;;23.74;48.52;98797.81;2021984;80;20203;-76
2021/08/01 09:10:20;;;;;;;2.31;0.84;;;;;;;23.57;47.29;98792.78;2022303;80;20277;-77
2021/08/01 09:13:48;;;;;;;3.95;0.99;;;;;;;23.66;48.57;98790.34;2026852;80;20303;-80
2021/08/01 09:16:51;;;;;;;;;;;;;;;23.44;48.13;98804.16;2020869;80;21003;-76
2021/08/01 09:20:11;;;;;;;2.69;0.65;;;;;;;23.12;49.56;98798.31;2017872;80;20114;-79
2021/08/01 09:23:14;;;;;;;3.47;0.81;;;;;;;23.70;49.17;98809.56;2021227;80;20197;-79
2021/08/01 09:26:16;;;;;;;4.25;0.60;;;;;;;24.27;47.95;98801.22;2026641;80;20526;-84
2021/08/01 09:29:19;;;;;;;1.79;0.70;;;;;;;24.48;46.63;98798.91;2027840;80;20172;-83
2021/08/01 09:32:23;;;;;;;4.05;0.70;;;;;;;24.21;46.00;98805.13;2030681;77;20236;-82
2021/08/01 09:35:26;;;;;;;1.73;0.70;;;;;;;24.22;47.59;98812.13;2030000;80;20241;-81
2021/08/01 09:38:42;;;;;;;1.31;0.63;;;;;;;24.23;45.87;98802.38;2027644;80;20243;-79
2021/08/01 09:41:44;;;;;;;2.90;0.70;;;;;;;24.36;47.41;98805.91;2026261;80;20189;-82
2021/08/01 09:44:47;;;;;;;2.46;0.65;;;;;;;24.71;46.95;98801.59;2026169;80;20229;-82
2021/08/01 09:47:50;;;;;;;1.04;0.59;;;;;;;24.88;45.89;98807.50;2026385;77;21161;-82
2021/08/01 09:50:58;;;;;;;1.63;0.61;;;;;;;24.95;45.25;98806.09;2027746;80;20260;-82
2021/08/01 09:54:01;;;;;;;1.34;0.57;;;;;;;24.63;45.74;98795.16;2026659;80;20201;-84
2021/08/01 09:57:06;;;;;;;2.74;0.54;;;;;;;24.51;43.72;98790.72;2030893;80;20213;-83
2021/08/01 10:00:09;;;;;;;1.51;0.70;;;;;;;24.27;44.98;98783.50;2026929;80;20180;-84
2021/08/01 10:03:34;;;;;;;1.79;0.45;;;;;;;24.07;45.36;98792.00;2027641;80;20195;-84
2021/08/01 10:06:37;;;;;;;0.99;0.47;;;;;;;23.70;45.70;98786.56;2026011;80;20211;-82
2021/08/01 10:09:41;;;;;;;0.99;0.50;;;;;;;23.36;45.80;98793.25;2027440;80;20313;-82
2021/08/01 10:12:45;;;;;;;1.26;0.50;;;;;;;23.54;46.32;98788.50;2027073;80;20183;-80
2021/08/01 10:15:48;;;;;;;1.56;0.49;;;;;;;23.87;45.62;98782.72;2026247;80;20195;-82
2021/08/01 10:18:51;;;;;;;0.55;0.30;;;;;;;23.95;44.22;98776.91;2026559;80;20207;-83
2021/08/01 10:21:59;;;;;;;0.61;0.40;;;;;;;24.05;43.32;98792.06;2026424;80;20163;-82
2021/08/01 10:25:06;;;;;;;1.42;0.45;;;;;;;24.14;44.10;98785.31;2027237;80;20199;-82
2021/08/01 10:28:10;;;;;;;1.03;0.50;;;;;;;24.32;42.50;98776.09;2028574;80;20282;-83
2021/08/01 10:31:16;;;;;;;1.00;0.50;;;;;;;24.65;42.77;98774.66;2029722;80;20180;-84
2021/08/01 10:41:36;;;;;;;1.02;0.40;;;;;;;25.00;41.95;98775.63;2049844;69;20156;-84
2021/08/01 10:44:39;;;;;;;0.56;0.40;;;;;;;24.69;40.23;98778.78;2030868;80;20176;-81
2021/08/01 10:47:43;;;;;;;0.76;0.38;;;;;;;24.86;41.11;98777.56;2028142;77;100639;-85
2021/08/01 10:50:49;;;;;;;2.83;0.70;;;;;;;25.02;41.54;98774.66;2028662;80;20199;-84
2021/08/01 10:53:52;;;;;;;1.76;0.40;;;;;;;24.83;40.67;98764.50;2030226;80;20179;-87
2021/08/01 11:00:16;;;;;;;1.95;0.35;;;;;;;24.95;40.51;98777.72;2039454;69;20349;-83
2021/08/01 11:03:19;;;;;;;3.45;0.35;;;;;;;25.02;41.31;98769.34;2030512;77;86707;-81
2021/08/01 11:06:42;;;;;;;1.17;0.40;;;;;;;24.85;40.78;98768.75;2028111;80;20164;-81
2021/08/01 11:10:10;;;;;;;1.33;0.40;;;;;;;24.94;40.57;98764.53;2047111;69;20144;-82
2021/08/01 11:13:31;;;;;;;0.50;0.40;;;;;;;25.00;40.90;98778.28;2020261;80;20193;-80
2021/08/01 11:16:34;;;;;;;0.99;0.30;;;;;;;24.84;40.29;98760.88;2022638;77;74416;-81
2021/08/01 11:19:37;;;;;;;0.45;0.30;;;;;;;24.26;41.44;98768.53;2027060;80;20180;-81
2021/08/01 11:22:39;;;;;;;3.28;0.30;;;;;;;24.48;41.10;98769.69;2025415;80;20191;-82
2021/08/01 11:26:07;;;;;;;0.80;0.40;;;;;;;24.33;40.87;98761.84;2028254;80;20168;-81
2021/08/01 11:29:10;;;;;;;0.79;0.30;;;;;;;24.37;42.39;98752.72;2023830;80;20268;-82
2021/08/01 11:32:14;;;;;;;1.31;0.30;;;;;;;24.73;41.17;98764.31;2027162;80;20255;-83
2021/08/01 11:35:18;;;;;;;2.11;0.30;;;;;;;24.75;42.06;98748.25;2025198;80;20168;-81
2021/08/01 11:38:21;;;;;;;1.01;0.30;;;;;;;24.86;41.57;98751.00;2026460;80;20219;-82
2021/08/01 11:41:39;;;;;;;1.60;0.30;;;;;;;25.16;39.67;98745.28;2027826;80;20306;-82
2021/08/01 11:44:56;;;;;;;1.14;0.30;;;;;;;25.47;40.50;98746.44;2027954;80;20727;-82
2021/08/01 11:48:01;;;;;;;0.91;0.30;;;;;;;25.36;36.72;98751.75;2030267;77;21798;-82
2021/08/01 11:51:07;;;;;;;1.45;0.39;;;;;;;24.39;38.63;98749.94;2026965;80;20201;-81
2021/08/01 11:54:11;;;;;;;1.83;0.30;;;;;;;24.45;39.86;98751.34;2028803;80;20176;-82
2021/08/01 11:57:15;;;;;;;1.10;0.35;;;;;;;24.74;40.96;98746.56;2026413;80;20179;-82
2021/08/01 12:00:24;;;;;;;1.77;0.20;;;;;;;25.14;41.23;98752.50;2027438;80;20183;-81
2021/08/01 12:03:28;;;;;;;1.00;0.24;;;;;;;25.48;40.28;98734.84;2026894;80;20254;-81
2021/08/01 12:06:34;;;;;;;1.69;0.40;;;;;;;25.81;40.14;98742.94;2026549;80;20209;-81
2021/08/01 12:09:38;;;;;;;0.93;0.30;;;;;;;26.16;39.33;98739.34;2026838;80;20168;-79
2021/08/01 12:12:41;;;;;;;2.60;0.54;;;;;;;25.88;39.63;98743.34;2025701;80;20185;-79
2021/08/01 12:15:44;;;;;;;1.06;0.30;;;;;;;25.83;37.65;98738.34;2026889;80;20192;-81
2021/08/01 12:18:46;;;;;;;2.94;0.40;;;;;;;25.87;36.99;98742.50;2028219;80;20217;-80
2021/08/01 12:21:54;;;;;;;4.45;0.40;;;;;;;25.35;38.28;98740.28;2028251;80;20257;-81
2021/08/01 12:24:59;;;;;;;1.40;0.69;;;;;;;25.10;39.62;98735.94;2023171;80;20272;-81
2021/08/01 12:28:02;;;;;;;0.86;0.35;;;;;;;25.16;39.17;98735.50;2024460;80;20242;-80
2021/08/01 12:31:04;;;;;;;0.98;0.30;;;;;;;25.33;39.80;98731.56;2022964;80;20564;-80
2021/08/01 12:34:07;;;;;;;0.59;0.22;;;;;;;25.45;37.52;98714.66;2021918;80;20655;-80
2021/08/01 12:37:10;;;;;;;0.86;0.30;;;;;;;25.59;37.30;98722.44;2023990;80;20698;-81
2021/08/01 12:41:20;;;;;;;0.89;0.30;;;;;;;25.40;37.32;98716.84;2079209;77;20163;-81
2021/08/01 12:44:22;;;;;;;1.45;0.30;;;;;;;25.34;38.41;98725.28;2070611;78;20215;-80
2021/08/01 12:47:27;;;;;;;1.77;0.50;;;;;;;25.28;36.96;98710.63;2051338;76;23807;-80
2021/08/01 12:50:32;;;;;;;2.45;0.49;;;;;;;25.55;37.79;98720.16;2045782;79;20172;-79
2021/08/01 12:53:36;;;;;;;1.74;0.26;;;;;;;25.58;37.56;98712.78;2046436;79;20513;-80
2021/08/01 12:57:05;;;;;;;1.08;0.30;;;;;;;25.59;37.75;98714.47;2046195;79;20464;-80
2021/08/01 13:00:12;;;;;;;2.16;0.30;;;;;;;25.66;38.53;98720.16;2044151;79;20177;-79
2021/08/01 13:03:15;;;;;;;1.39;0.30;;;;;;;25.84;37.39;98704.59;2050457;76;26593;-81
2021/08/01 13:06:26;;;;;;;0.45;0.30;;;;;;;25.97;36.39;98715.16;2049546;79;20168;-79
2021/08/01 13:09:29;;;;;;;0.50;0.28;;;;;;;26.02;36.97;98707.66;2049881;79;20237;-80
2021/08/01 13:12:32;;;;;;;1.66;0.30;;;;;;;25.81;36.95;98719.00;2051137;79;20193;-79
2021/08/01 13:15:37;;;;;;;2.19;0.40;;;;;;;25.65;37.31;98707.81;2048733;78;23168;-79
2021/08/01 13:18:40;;;;;;;1.16;0.26;;;;;;;25.79;37.79;98715.63;2043554;79;20316;-79
2021/08/01 13:22:03;;;;;;;2.08;0.30;;;;;;;26.03;37.29;98710.22;2045470;79;20273;-80
2021/08/01 13:25:06;;;;;;;0.38;0.22;;;;;;;25.85;37.64;98723.16;2045659;79;20177;-79
2021/08/01 13:28:08;;;;;;;0.32;0.28;;;;;;;25.90;37.38;98728.94;2046040;79;20254;-79
2021/08/01 13:31:11;;;;;;;0.91;0.34;;;;;;;25.98;37.42;98730.16;2045300;76;23608;-79
2021/08/01 13:34:16;;;;;;;2.08;0.40;;;;;;;25.99;36.38;98724.69;2052571;79;20864;-79
2021/08/01 13:37:21;;;;;;;2.28;0.47;;;;;;;25.85;36.71;98730.25;2050359;79;20176;-79
2021/08/01 13:40:29;;;;;;;1.24;0.40;;;;;;;25.76;37.76;98730.97;2052120;79;20176;-80
2021/08/01 13:43:31;;;;;;;0.74;0.40;;;;;;;25.59;38.17;98735.75;2051865;79;20188;-79
2021/08/01 13:46:34;;;;;;;1.76;0.50;;;;;;;25.35;38.74;98734.09;2052570;79;21884;-78
2021/08/01 13:49:38;;;;;;;0.76;0.40;;;;;;;25.17;38.91;98741.66;2050327;79;20675;-76
2021/08/01 13:52:47;;;;;;;1.15;0.50;;;;;;;25.16;39.45;98745.28;2049450;79;20173;-81
2021/08/01 13:55:50;;;;;;;0.54;0.30;;;;;;;25.13;38.55;98738.34;2047301;79;20277;-81
2021/08/01 13:58:56;;;;;;;1.91;0.29;;;;;;;25.17;39.43;98734.53;2050669;79;20245;-80
2021/08/01 14:01:59;;;;;;;0.44;0.30;;;;;;;25.39;39.49;98744.38;2047395;76;20230;-79
2021/08/01 14:05:03;;;;;;;0.98;0.30;;;;;;;25.64;38.95;98734.53;2046199;79;20254;-79
2021/08/01 14:08:05;;;;;;;2.90;0.40;;;;;;;25.72;37.89;98740.16;2050406;79;20161;-82
2021/08/01 14:11:08;;;;;;;1.06;0.34;;;;;;;25.75;38.64;98735.44;2049448;79;20169;-79
2021/08/01 14:14:11;;;;;;;2.47;0.32;;;;;;;26.06;37.80;98741.91;2052680;79;20187;-81
2021/08/01 14:17:14;;;;;;;1.42;0.30;;;;;;;26.01;37.57;98732.56;2045299;76;25162;-80
2021/08/01 14:20:17;;;;;;;0.54;0.21;;;;;;;26.20;37.78;98731.00;2045797;79;20170;-80
2021/08/01 14:23:19;;;;;;;2.38;0.30;;;;;;;26.32;37.71;98729.19;2050239;79;20314;-81
2021/08/01 14:26:24;;;;;;;2.94;0.38;;;;;;;25.80;37.36;98743.06;2048360;79;20225;-81
2021/08/01 14:29:33;;;;;;;0.65;0.30;;;;;;;25.45;38.86;98737.75;2047544;79;20169;-79
2021/08/01 14:32:41;;;;;;;0.74;0.30;;;;;;;25.26;38.99;98736.47;2053760;77;22196;-76
2021/08/01 14:35:44;;;;;;;0.45;0.20;;;;;;;24.79;39.14;98737.31;2050008;79;20184;-81
2021/08/01 14:38:47;;;;;;;2.29;0.50;;;;;;;24.55;41.83;98736.44;2051531;79;20206;-80
2021/08/01 14:41:51;;;;;;;2.67;0.30;;;;;;;24.69;41.37;98738.94;2051429;79;20340;-78
2021/08/01 14:44:55;;;;;;;0.74;0.31;;;;;;;24.79;41.41;98728.50;2051397;79;20164;-80
2021/08/01 14:48:01;;;;;;;0.71;0.30;;;;;;;24.90;40.97;98732.06;2050838;76;23256;-81
2021/08/01 14:51:21;;;;;;;0.95;0.20;;;;;;;25.22;42.22;98734.16;2052177;79;20168;-81
2021/08/01 14:54:27;;;;;;;2.83;0.39;;;;;;;24.98;39.43;98726.19;2055240;79;20196;-81
2021/08/01 14:57:54;;;;;;;3.83;0.61;;;;;;;24.66;40.85;98728.56;2053008;79;20172;-81